sensor_id;sensor_type;location;lat;lon;timestamp;temperature;humidity
12039;DHT22;6080;48.818;9.526;2023-06-04T03:02:36;12.10;99.90
12039;DHT22;6080;48.818;9.526;2023-06-04T03:05:02;12.00;99.90
12039;DHT22;6080;48.818;9.526;2023-06-04T03:07:29;12.00;99.90
12039;DHT22;6080;48.818;9.526;2023-06-04T03:09:55;12.00;99.90
12039;DHT22;6080;48.818;9.526;2023-06-04T03:12:21;12.00;99.90
12039;DHT22;6080;48.818;9.526;2023-06-04T03:14:47;11.90;99.90
12039;DHT22;6080;48.818;9.526;2023-06-04T03:17:13;12.00;99.90
12039;DHT22;6080;48.818;9.526;2023-06-04T03:19:40;11.90;99.90
12039;DHT22;6080;48.818;9.526;2023-06-04T03:22:07;11.90;99.90
12039;DHT22;6080;48.818;9.526;2023-06-04T03:24:39;11.80;99.90
12039;DHT22;6080;48.818;9.526;2023-06-04T03:27:06;11.80;99.90
12039;DHT22;6080;48.818;9.526;2023-06-04T03:29:33;11.80;99.90
12039;DHT22;6080;48.818;9.526;2023-06-04T03:31:59;11.80;99.90
12039;DHT22;6080;48.818;9.526;2023-06-04T03:34:25;11.70;99.90
12039;DHT22;6080;48.818;9.526;2023-06-04T03:36:52;11.60;99.90
12039;DHT22;6080;48.818;9.526;2023-06-04T03:39:18;11.70;99.90
12039;DHT22;6080;48.818;9.526;2023-06-04T03:41:44;11.60;99.90
12039;DHT22;6080;48.818;9.526;2023-06-04T03:44:16;11.60;99.90
12039;DHT22;6080;48.818;9.526;2023-06-04T03:46:42;11.60;99.90
12039;DHT22;6080;48.818;9.526;2023-06-04T03:49:12;11.70;99.90
12039;DHT22;6080;48.818;9.526;2023-06-04T03:51:38;11.70;99.90
12039;DHT22;6080;48.818;9.526;2023-06-04T03:54:04;11.80;99.90
12039;DHT22;6080;48.818;9.526;2023-06-04T03:56:31;11.80;99.90
12039;DHT22;6080;48.818;9.526;2023-06-04T03:58:57;11.90;99.90
12039;DHT22;6080;48.818;9.526;2023-06-04T04:01:23;11.90;99.90
12039;DHT22;6080;48.818;9.526;2023-06-04T04:03:50;11.90;99.90
12039;DHT22;6080;48.818;9.526;2023-06-04T04:06:17;11.90;99.90
12039;DHT22;6080;48.818;9.526;2023-06-04T04:08:43;12.10;99.90
12039;DHT22;6080;48.818;9.526;2023-06-04T04:11:15;12.10;99.90
12039;DHT22;6080;48.818;9.526;2023-06-04T04:13:42;12.10;99.90
12039;DHT22;6080;48.818;9.526;2023-06-04T04:16:07;12.10;99.90
12039;DHT22;6080;48.818;9.526;2023-06-04T04:18:34;12.10;99.90
12039;DHT22;6080;48.818;9.526;2023-06-04T04:21:01;12.10;99.90
12039;DHT22;6080;48.818;9.526;2023-06-04T04:23:28;12.10;99.90
12039;DHT22;6080;48.818;9.526;2023-06-04T04:25:54;12.10;99.90
12039;DHT22;6080;48.818;9.526;2023-06-04T04:28:22;12.20;99.90
12039;DHT22;6080;48.818;9.526;2023-06-04T04:30:48;12.20;99.90
12039;DHT22;6080;48.818;9.526;2023-06-04T04:33:14;12.20;99.90
12039;DHT22;6080;48.818;9.526;2023-06-04T04:35:44;12.20;99.90
12039;DHT22;6080;48.818;9.526;2023-06-04T04:38:10;12.20;99.90
12039;DHT22;6080;48.818;9.526;2023-06-04T04:40:36;12.30;99.90
12039;DHT22;6080;48.818;9.526;2023-06-04T04:43:02;12.50;99.90
12039;DHT22;6080;48.818;9.526;2023-06-04T04:45:30;12.60;99.90
12039;DHT22;6080;48.818;9.526;2023-06-04T04:47:56;12.70;99.90
12039;DHT22;6080;48.818;9.526;2023-06-04T04:50:22;12.70;99.90
12039;DHT22;6080;48.818;9.526;2023-06-04T04:52:47;12.80;99.90
12039;DHT22;6080;48.818;9.526;2023-06-04T04:55:13;12.90;99.90
12039;DHT22;6080;48.818;9.526;2023-06-04T04:57:39;12.90;99.90
12039;DHT22;6080;48.818;9.526;2023-06-04T05:00:05;13.00;99.90
12039;DHT22;6080;48.818;9.526;2023-06-04T05:02:37;13.20;99.90
12039;DHT22;6080;48.818;9.526;2023-06-04T05:05:03;13.40;99.90
12039;DHT22;6080;48.818;9.526;2023-06-04T05:07:29;13.80;99.90
12039;DHT22;6080;48.818;9.526;2023-06-04T05:09:55;14.10;99.90
12039;DHT22;6080;48.818;9.526;2023-06-04T05:12:21;14.50;99.90
12039;DHT22;6080;48.818;9.526;2023-06-04T05:14:47;14.80;99.90
12039;DHT22;6080;48.818;9.526;2023-06-04T05:17:12;15.00;99.90
12039;DHT22;6080;48.818;9.526;2023-06-04T05:19:39;15.20;99.90
12039;DHT22;6080;48.818;9.526;2023-06-04T05:22:04;15.90;99.90
12039;DHT22;6080;48.818;9.526;2023-06-04T05:24:31;16.70;99.90
12039;DHT22;6080;48.818;9.526;2023-06-04T05:26:58;17.60;99.90
12039;DHT22;6080;48.818;9.526;2023-06-04T05:29:24;18.20;99.90
12039;DHT22;6080;48.818;9.526;2023-06-04T05:31:50;18.80;99.90
12039;DHT22;6080;48.818;9.526;2023-06-04T05:34:16;19.30;99.90
12039;DHT22;6080;48.818;9.526;2023-06-04T05:36:42;19.60;99.90
12039;DHT22;6080;48.818;9.526;2023-06-04T05:39:09;19.90;97.80
12039;DHT22;6080;48.818;9.526;2023-06-04T05:41:36;19.80;96.50
12039;DHT22;6080;48.818;9.526;2023-06-04T05:44:02;19.50;96.30
12039;DHT22;6080;48.818;9.526;2023-06-04T05:46:28;19.70;95.40
12039;DHT22;6080;48.818;9.526;2023-06-04T05:48:54;20.20;94.30
12039;DHT22;6080;48.818;9.526;2023-06-04T05:51:20;19.70;93.10
12039;DHT22;6080;48.818;9.526;2023-06-04T05:53:46;19.20;93.20
12039;DHT22;6080;48.818;9.526;2023-06-04T05:56:13;18.80;94.20
12039;DHT22;6080;48.818;9.526;2023-06-04T05:58:38;18.60;93.80
12039;DHT22;6080;48.818;9.526;2023-06-04T06:01:04;18.60;93.80
12039;DHT22;6080;48.818;9.526;2023-06-04T06:03:31;19.00;94.20
12039;DHT22;6080;48.818;9.526;2023-06-04T06:05:57;20.00;93.10
12039;DHT22;6080;48.818;9.526;2023-06-04T06:08:25;20.70;90.90
12039;DHT22;6080;48.818;9.526;2023-06-04T06:10:51;21.40;89.10
12039;DHT22;6080;48.818;9.526;2023-06-04T06:13:17;21.40;88.20
12039;DHT22;6080;48.818;9.526;2023-06-04T06:15:42;21.10;86.90
12039;DHT22;6080;48.818;9.526;2023-06-04T06:18:09;21.10;87.60
12039;DHT22;6080;48.818;9.526;2023-06-04T06:20:34;21.70;85.60
12039;DHT22;6080;48.818;9.526;2023-06-04T06:23:07;22.20;83.20
12039;DHT22;6080;48.818;9.526;2023-06-04T06:25:33;22.20;82.10
12039;DHT22;6080;48.818;9.526;2023-06-04T06:27:59;22.50;81.60
12039;DHT22;6080;48.818;9.526;2023-06-04T06:30:25;22.80;79.00
12039;DHT22;6080;48.818;9.526;2023-06-04T06:32:50;22.10;80.50
12039;DHT22;6080;48.818;9.526;2023-06-04T06:35:17;22.00;81.90
12039;DHT22;6080;48.818;9.526;2023-06-04T06:37:43;22.20;81.20
12039;DHT22;6080;48.818;9.526;2023-06-04T06:40:10;22.30;80.20
12039;DHT22;6080;48.818;9.526;2023-06-04T06:42:36;22.40;79.80
12039;DHT22;6080;48.818;9.526;2023-06-04T06:45:02;22.30;80.80
12039;DHT22;6080;48.818;9.526;2023-06-04T06:47:27;23.00;79.20
12039;DHT22;6080;48.818;9.526;2023-06-04T06:49:53;23.50;77.10
12039;DHT22;6080;48.818;9.526;2023-06-04T06:52:20;23.70;75.60
12039;DHT22;6080;48.818;9.526;2023-06-04T06:54:46;23.90;75.30
12039;DHT22;6080;48.818;9.526;2023-06-04T06:57:12;24.00;74.10
12039;DHT22;6080;48.818;9.526;2023-06-04T06:59:38;23.80;74.50
12039;DHT22;6080;48.818;9.526;2023-06-04T07:02:05;23.30;74.60
12039;DHT22;6080;48.818;9.526;2023-06-04T07:04:30;23.50;76.50
12039;DHT22;6080;48.818;9.526;2023-06-04T07:06:56;23.70;74.60
12039;DHT22;6080;48.818;9.526;2023-06-04T07:09:22;23.80;75.70
12039;DHT22;6080;48.818;9.526;2023-06-04T07:11:48;24.50;73.70
12039;DHT22;6080;48.818;9.526;2023-06-04T07:14:14;24.80;71.50
12039;DHT22;6080;48.818;9.526;2023-06-04T07:16:40;25.00;70.00
12039;DHT22;6080;48.818;9.526;2023-06-04T07:19:06;25.10;70.30
12039;DHT22;6080;48.818;9.526;2023-06-04T07:21:32;25.30;68.20
12039;DHT22;6080;48.818;9.526;2023-06-04T07:23:57;24.90;69.20
12039;DHT22;6080;48.818;9.526;2023-06-04T07:26:23;24.90;69.50
12039;DHT22;6080;48.818;9.526;2023-06-04T07:28:50;24.80;72.20
12039;DHT22;6080;48.818;9.526;2023-06-04T07:31:16;25.10;69.20
12039;DHT22;6080;48.818;9.526;2023-06-04T07:33:42;25.00;68.30
12039;DHT22;6080;48.818;9.526;2023-06-04T07:36:16;24.80;70.40
12039;DHT22;6080;48.818;9.526;2023-06-04T07:38:42;24.80;68.90
12039;DHT22;6080;48.818;9.526;2023-06-04T07:41:08;25.10;69.90
12039;DHT22;6080;48.818;9.526;2023-06-04T07:43:34;25.70;69.60
12039;DHT22;6080;48.818;9.526;2023-06-04T07:46:01;26.40;67.10
12039;DHT22;6080;48.818;9.526;2023-06-04T07:48:28;26.40;64.60
12039;DHT22;6080;48.818;9.526;2023-06-04T07:50:57;26.00;65.00
12039;DHT22;6080;48.818;9.526;2023-06-04T07:53:24;25.80;66.20
12039;DHT22;6080;48.818;9.526;2023-06-04T07:55:49;25.50;65.00
12039;DHT22;6080;48.818;9.526;2023-06-04T07:58:15;25.20;66.30
12039;DHT22;6080;48.818;9.526;2023-06-04T08:00:41;25.10;67.70
12039;DHT22;6080;48.818;9.526;2023-06-04T08:03:07;25.50;67.50
12039;DHT22;6080;48.818;9.526;2023-06-04T08:05:32;26.10;66.90
12039;DHT22;6080;48.818;9.526;2023-06-04T08:07:59;26.60;63.90
12039;DHT22;6080;48.818;9.526;2023-06-04T08:10:25;26.50;64.40
12039;DHT22;6080;48.818;9.526;2023-06-04T08:12:51;26.70;63.50
12039;DHT22;6080;48.818;9.526;2023-06-04T08:15:17;26.60;63.30
12039;DHT22;6080;48.818;9.526;2023-06-04T08:17:42;26.20;63.50
12039;DHT22;6080;48.818;9.526;2023-06-04T08:20:08;26.10;64.20
12039;DHT22;6080;48.818;9.526;2023-06-04T08:22:34;26.40;64.10
12039;DHT22;6080;48.818;9.526;2023-06-04T08:25:00;26.90;63.10
12039;DHT22;6080;48.818;9.526;2023-06-04T08:27:26;26.70;61.90
12039;DHT22;6080;48.818;9.526;2023-06-04T08:29:51;26.10;64.40
12039;DHT22;6080;48.818;9.526;2023-06-04T08:32:18;26.70;66.00
12039;DHT22;6080;48.818;9.526;2023-06-04T08:34:44;27.20;62.10
12039;DHT22;6080;48.818;9.526;2023-06-04T08:37:10;27.50;62.30
12039;DHT22;6080;48.818;9.526;2023-06-04T08:39:35;27.30;60.60
12039;DHT22;6080;48.818;9.526;2023-06-04T08:42:04;26.40;60.70
12039;DHT22;6080;48.818;9.526;2023-06-04T08:44:33;26.50;60.70
12039;DHT22;6080;48.818;9.526;2023-06-04T08:47:03;26.60;60.20
12039;DHT22;6080;48.818;9.526;2023-06-04T08:49:34;26.90;59.70
12039;DHT22;6080;48.818;9.526;2023-06-04T08:52:02;27.10;61.10
12039;DHT22;6080;48.818;9.526;2023-06-04T08:54:29;27.50;58.30
12039;DHT22;6080;48.818;9.526;2023-06-04T08:56:56;26.90;59.10
12039;DHT22;6080;48.818;9.526;2023-06-04T08:59:23;26.80;59.50
12039;DHT22;6080;48.818;9.526;2023-06-04T09:01:54;26.50;58.50
12039;DHT22;6080;48.818;9.526;2023-06-04T09:04:21;26.50;59.20
12039;DHT22;6080;48.818;9.526;2023-06-04T09:06:47;26.80;57.40
12039;DHT22;6080;48.818;9.526;2023-06-04T09:09:14;26.80;57.20
12039;DHT22;6080;48.818;9.526;2023-06-04T09:11:52;26.40;57.20
12039;DHT22;6080;48.818;9.526;2023-06-04T09:14:19;26.00;58.60
12039;DHT22;6080;48.818;9.526;2023-06-04T09:16:51;26.20;58.80
12039;DHT22;6080;48.818;9.526;2023-06-04T09:19:19;26.60;57.50
12039;DHT22;6080;48.818;9.526;2023-06-04T09:21:58;26.80;57.10
12039;DHT22;6080;48.818;9.526;2023-06-04T09:24:38;27.20;56.80
12039;DHT22;6080;48.818;9.526;2023-06-04T09:27:10;27.70;56.00
12039;DHT22;6080;48.818;9.526;2023-06-04T09:29:37;28.10;55.10
12039;DHT22;6080;48.818;9.526;2023-06-04T09:32:03;27.80;55.70
12039;DHT22;6080;48.818;9.526;2023-06-04T09:34:29;27.40;55.00
12039;DHT22;6080;48.818;9.526;2023-06-04T09:36:55;27.70;55.80
12039;DHT22;6080;48.818;9.526;2023-06-04T09:39:22;28.20;54.30
12039;DHT22;6080;48.818;9.526;2023-06-04T09:42:01;28.00;54.20
12039;DHT22;6080;48.818;9.526;2023-06-04T09:44:31;28.40;54.30
12039;DHT22;6080;48.818;9.526;2023-06-04T09:46:57;28.40;53.00
12039;DHT22;6080;48.818;9.526;2023-06-04T09:49:23;28.20;53.80
12039;DHT22;6080;48.818;9.526;2023-06-04T09:51:50;28.90;52.60
12039;DHT22;6080;48.818;9.526;2023-06-04T09:54:16;28.30;51.50
12039;DHT22;6080;48.818;9.526;2023-06-04T09:56:42;27.70;53.40
12039;DHT22;6080;48.818;9.526;2023-06-04T09:59:09;28.20;54.10
12039;DHT22;6080;48.818;9.526;2023-06-04T10:01:39;28.70;51.90
12039;DHT22;6080;48.818;9.526;2023-06-04T10:04:08;28.60;51.90
12039;DHT22;6080;48.818;9.526;2023-06-04T10:06:35;29.30;50.60
12039;DHT22;6080;48.818;9.526;2023-06-04T10:09:07;29.30;50.80
12039;DHT22;6080;48.818;9.526;2023-06-04T10:11:47;29.90;49.90
12039;DHT22;6080;48.818;9.526;2023-06-04T10:14:41;29.90;49.80
12039;DHT22;6080;48.818;9.526;2023-06-04T10:17:12;29.60;49.50
12039;DHT22;6080;48.818;9.526;2023-06-04T10:19:42;29.50;50.50
12039;DHT22;6080;48.818;9.526;2023-06-04T10:22:09;30.00;49.50
12039;DHT22;6080;48.818;9.526;2023-06-04T10:24:37;30.60;48.60
12039;DHT22;6080;48.818;9.526;2023-06-04T10:27:04;31.10;48.10
12039;DHT22;6080;48.818;9.526;2023-06-04T10:29:36;30.90;47.80
12039;DHT22;6080;48.818;9.526;2023-06-04T10:32:02;30.60;48.60
12039;DHT22;6080;48.818;9.526;2023-06-04T10:34:28;30.60;47.70
12039;DHT22;6080;48.818;9.526;2023-06-04T10:36:54;30.10;48.00
12039;DHT22;6080;48.818;9.526;2023-06-04T10:39:31;30.00;48.00
12039;DHT22;6080;48.818;9.526;2023-06-04T10:42:01;30.60;47.90
12039;DHT22;6080;48.818;9.526;2023-06-04T10:44:31;31.10;47.20
12039;DHT22;6080;48.818;9.526;2023-06-04T10:46:58;31.70;46.40
12039;DHT22;6080;48.818;9.526;2023-06-04T10:49:30;31.80;47.70
12039;DHT22;6080;48.818;9.526;2023-06-04T10:51:58;32.10;45.90
12039;DHT22;6080;48.818;9.526;2023-06-04T10:54:29;32.00;43.30
12039;DHT22;6080;48.818;9.526;2023-06-04T10:56:55;31.70;44.80
12039;DHT22;6080;48.818;9.526;2023-06-04T10:59:21;30.80;44.80
12039;DHT22;6080;48.818;9.526;2023-06-04T11:01:47;30.40;45.00
12039;DHT22;6080;48.818;9.526;2023-06-04T11:04:25;30.60;44.60
12039;DHT22;6080;48.818;9.526;2023-06-04T11:07:07;30.40;44.20
12039;DHT22;6080;48.818;9.526;2023-06-04T11:09:56;30.70;44.80
12039;DHT22;6080;48.818;9.526;2023-06-04T11:12:22;31.40;44.50
12039;DHT22;6080;48.818;9.526;2023-06-04T11:14:55;31.20;43.50
12039;DHT22;6080;48.818;9.526;2023-06-04T11:17:21;30.90;44.40
12039;DHT22;6080;48.818;9.526;2023-06-04T11:19:47;31.30;44.10
12039;DHT22;6080;48.818;9.526;2023-06-04T11:22:13;32.00;44.50
12039;DHT22;6080;48.818;9.526;2023-06-04T11:24:38;32.70;41.90
12039;DHT22;6080;48.818;9.526;2023-06-04T11:27:05;33.10;41.60
12039;DHT22;6080;48.818;9.526;2023-06-04T11:29:32;33.00;42.50
12039;DHT22;6080;48.818;9.526;2023-06-04T11:31:58;32.60;43.00
12039;DHT22;6080;48.818;9.526;2023-06-04T11:34:28;32.90;41.90
12039;DHT22;6080;48.818;9.526;2023-06-04T11:36:55;33.00;41.90
12039;DHT22;6080;48.818;9.526;2023-06-04T11:39:21;33.20;40.70
12039;DHT22;6080;48.818;9.526;2023-06-04T11:41:50;33.60;40.00
12039;DHT22;6080;48.818;9.526;2023-06-04T11:44:18;33.60;40.00
12039;DHT22;6080;48.818;9.526;2023-06-04T11:46:45;33.40;41.40
12039;DHT22;6080;48.818;9.526;2023-06-04T11:49:17;33.90;41.70
12039;DHT22;6080;48.818;9.526;2023-06-04T11:51:51;34.30;39.80
12039;DHT22;6080;48.818;9.526;2023-06-04T11:54:18;33.90;39.30
12039;DHT22;6080;48.818;9.526;2023-06-04T11:56:44;33.90;38.80
12039;DHT22;6080;48.818;9.526;2023-06-04T11:59:12;34.60;38.70
12039;DHT22;6080;48.818;9.526;2023-06-04T12:01:43;34.50;38.90
12039;DHT22;6080;48.818;9.526;2023-06-04T12:06:39;33.60;38.80
12039;DHT22;6080;48.818;9.526;2023-06-04T12:09:20;31.20;40.70
12039;DHT22;6080;48.818;9.526;2023-06-04T12:11:47;31.40;40.70
12039;DHT22;6080;48.818;9.526;2023-06-04T12:14:17;31.70;40.30
12039;DHT22;6080;48.818;9.526;2023-06-04T12:16:56;31.10;40.80
12039;DHT22;6080;48.818;9.526;2023-06-04T12:19:22;30.50;41.40
12039;DHT22;6080;48.818;9.526;2023-06-04T12:22:06;31.70;40.50
12039;DHT22;6080;48.818;9.526;2023-06-04T12:24:55;32.70;39.60
12039;DHT22;6080;48.818;9.526;2023-06-04T12:27:28;32.50;39.70
12039;DHT22;6080;48.818;9.526;2023-06-04T12:32:23;34.10;37.90
12039;DHT22;6080;48.818;9.526;2023-06-04T12:34:48;32.90;38.40
12039;DHT22;6080;48.818;9.526;2023-06-04T12:37:14;31.80;40.20
12039;DHT22;6080;48.818;9.526;2023-06-04T12:39:40;32.10;40.40
12039;DHT22;6080;48.818;9.526;2023-06-04T12:42:06;32.70;39.80
12039;DHT22;6080;48.818;9.526;2023-06-04T12:44:36;33.50;39.40
12039;DHT22;6080;48.818;9.526;2023-06-04T12:47:03;34.30;37.80
12039;DHT22;6080;48.818;9.526;2023-06-04T12:49:28;34.50;37.80
12039;DHT22;6080;48.818;9.526;2023-06-04T12:51:54;33.80;37.50
12039;DHT22;6080;48.818;9.526;2023-06-04T12:54:20;33.40;38.90
12039;DHT22;6080;48.818;9.526;2023-06-04T12:56:46;34.20;39.30
12039;DHT22;6080;48.818;9.526;2023-06-04T12:59:12;35.20;38.10
12039;DHT22;6080;48.818;9.526;2023-06-04T13:01:38;34.50;37.10
12039;DHT22;6080;48.818;9.526;2023-06-04T13:04:04;33.90;37.80
12039;DHT22;6080;48.818;9.526;2023-06-04T13:06:30;33.20;38.60
12039;DHT22;6080;48.818;9.526;2023-06-04T13:08:56;32.50;38.20
12039;DHT22;6080;48.818;9.526;2023-06-04T13:11:22;32.20;39.60
12039;DHT22;6080;48.818;9.526;2023-06-04T13:13:48;31.90;39.60
12039;DHT22;6080;48.818;9.526;2023-06-04T13:16:14;31.40;39.00
12039;DHT22;6080;48.818;9.526;2023-06-04T13:18:40;31.70;39.20
12039;DHT22;6080;48.818;9.526;2023-06-04T13:21:06;32.70;39.60
12039;DHT22;6080;48.818;9.526;2023-06-04T13:23:31;33.10;37.60
12039;DHT22;6080;48.818;9.526;2023-06-04T13:25:57;33.30;36.80
12039;DHT22;6080;48.818;9.526;2023-06-04T13:28:23;32.90;37.00
12039;DHT22;6080;48.818;9.526;2023-06-04T13:30:49;33.20;38.10
12039;DHT22;6080;48.818;9.526;2023-06-04T13:33:15;33.50;37.00
12039;DHT22;6080;48.818;9.526;2023-06-04T13:35:41;34.30;36.30
12039;DHT22;6080;48.818;9.526;2023-06-04T13:38:08;35.00;36.30
12039;DHT22;6080;48.818;9.526;2023-06-04T13:40:36;34.20;35.80
12039;DHT22;6080;48.818;9.526;2023-06-04T13:43:04;33.40;35.90
12039;DHT22;6080;48.818;9.526;2023-06-04T13:45:30;33.30;36.50
12039;DHT22;6080;48.818;9.526;2023-06-04T13:47:56;33.50;36.60
12039;DHT22;6080;48.818;9.526;2023-06-04T13:50:25;34.20;36.20
12039;DHT22;6080;48.818;9.526;2023-06-04T13:52:50;34.70;35.60
12039;DHT22;6080;48.818;9.526;2023-06-04T13:55:18;34.70;35.00
12039;DHT22;6080;48.818;9.526;2023-06-04T13:57:43;34.60;36.50
12039;DHT22;6080;48.818;9.526;2023-06-04T14:00:09;34.70;36.00
12039;DHT22;6080;48.818;9.526;2023-06-04T14:02:35;35.30;34.60
12039;DHT22;6080;48.818;9.526;2023-06-04T14:05:01;36.00;34.00
12039;DHT22;6080;48.818;9.526;2023-06-04T14:07:27;36.30;34.10
12039;DHT22;6080;48.818;9.526;2023-06-04T14:09:53;35.30;33.80
12039;DHT22;6080;48.818;9.526;2023-06-04T14:12:22;34.60;33.90
12039;DHT22;6080;48.818;9.526;2023-06-04T14:14:49;33.90;34.40
12039;DHT22;6080;48.818;9.526;2023-06-04T14:17:14;32.60;35.60
12039;DHT22;6080;48.818;9.526;2023-06-04T14:19:40;32.40;36.30
12039;DHT22;6080;48.818;9.526;2023-06-04T14:22:06;33.40;35.80
12039;DHT22;6080;48.818;9.526;2023-06-04T14:24:32;34.20;34.80
12039;DHT22;6080;48.818;9.526;2023-06-04T14:26:58;35.20;34.90
12039;DHT22;6080;48.818;9.526;2023-06-04T14:29:24;35.90;34.00
12039;DHT22;6080;48.818;9.526;2023-06-04T14:31:50;36.90;32.10
12039;DHT22;6080;48.818;9.526;2023-06-04T14:34:16;36.70;31.80
12039;DHT22;6080;48.818;9.526;2023-06-04T14:36:42;36.20;31.80
12039;DHT22;6080;48.818;9.526;2023-06-04T14:39:07;36.40;32.00
12039;DHT22;6080;48.818;9.526;2023-06-04T14:41:33;36.40;32.90
12039;DHT22;6080;48.818;9.526;2023-06-04T14:43:59;36.10;33.80
12039;DHT22;6080;48.818;9.526;2023-06-04T14:46:26;36.20;33.20
12039;DHT22;6080;48.818;9.526;2023-06-04T14:48:51;36.50;33.30
12039;DHT22;6080;48.818;9.526;2023-06-04T14:51:17;36.70;31.90
12039;DHT22;6080;48.818;9.526;2023-06-04T14:53:43;37.70;31.90
12039;DHT22;6080;48.818;9.526;2023-06-04T14:56:09;37.70;31.20
12039;DHT22;6080;48.818;9.526;2023-06-04T14:58:34;37.60;31.40
12039;DHT22;6080;48.818;9.526;2023-06-04T15:01:00;37.30;31.00
12039;DHT22;6080;48.818;9.526;2023-06-04T15:03:29;37.40;31.40
12039;DHT22;6080;48.818;9.526;2023-06-04T15:05:56;37.20;29.90
12039;DHT22;6080;48.818;9.526;2023-06-04T15:08:22;36.10;31.90
12039;DHT22;6080;48.818;9.526;2023-06-04T15:10:48;34.80;33.40
12039;DHT22;6080;48.818;9.526;2023-06-04T15:13:14;34.50;32.80
12039;DHT22;6080;48.818;9.526;2023-06-04T15:15:39;34.40;32.30
12039;DHT22;6080;48.818;9.526;2023-06-04T15:18:05;34.60;32.50
12039;DHT22;6080;48.818;9.526;2023-06-04T15:20:33;35.40;31.70
12039;DHT22;6080;48.818;9.526;2023-06-04T15:22:59;35.50;32.00
12039;DHT22;6080;48.818;9.526;2023-06-04T15:25:25;35.40;33.40
12039;DHT22;6080;48.818;9.526;2023-06-04T15:27:51;35.10;33.50
12039;DHT22;6080;48.818;9.526;2023-06-04T15:30:17;35.50;33.30
12039;DHT22;6080;48.818;9.526;2023-06-04T15:32:43;35.70;32.90
12039;DHT22;6080;48.818;9.526;2023-06-04T15:35:10;35.60;33.20
12039;DHT22;6080;48.818;9.526;2023-06-04T15:37:36;35.20;33.00
12039;DHT22;6080;48.818;9.526;2023-06-04T15:40:02;34.60;34.50
12039;DHT22;6080;48.818;9.526;2023-06-04T15:42:28;33.50;34.50
12039;DHT22;6080;48.818;9.526;2023-06-04T15:44:54;32.00;35.70
12039;DHT22;6080;48.818;9.526;2023-06-04T15:47:20;30.70;37.10
12039;DHT22;6080;48.818;9.526;2023-06-04T15:49:46;30.40;38.10
12039;DHT22;6080;48.818;9.526;2023-06-04T15:52:11;30.30;37.40
12039;DHT22;6080;48.818;9.526;2023-06-04T15:54:37;29.00;38.40
12039;DHT22;6080;48.818;9.526;2023-06-04T15:57:03;28.10;40.30
12039;DHT22;6080;48.818;9.526;2023-06-04T15:59:29;28.50;41.20
12039;DHT22;6080;48.818;9.526;2023-06-04T16:01:55;29.90;39.10
12039;DHT22;6080;48.818;9.526;2023-06-04T16:04:20;31.20;38.20
12039;DHT22;6080;48.818;9.526;2023-06-04T16:06:46;32.40;35.40
12039;DHT22;6080;48.818;9.526;2023-06-04T16:09:12;32.40;35.10
12039;DHT22;6080;48.818;9.526;2023-06-04T16:11:37;32.40;34.90
12039;DHT22;6080;48.818;9.526;2023-06-04T16:14:04;32.00;35.70
12039;DHT22;6080;48.818;9.526;2023-06-04T16:16:31;31.70;35.70
12039;DHT22;6080;48.818;9.526;2023-06-04T16:18:57;30.90;36.70
12039;DHT22;6080;48.818;9.526;2023-06-04T16:21:25;30.40;37.30
12039;DHT22;6080;48.818;9.526;2023-06-04T16:23:51;30.50;37.80
12039;DHT22;6080;48.818;9.526;2023-06-04T16:26:17;30.00;37.60
12039;DHT22;6080;48.818;9.526;2023-06-04T16:28:43;29.30;38.70
12039;DHT22;6080;48.818;9.526;2023-06-04T16:31:09;28.50;39.70
12039;DHT22;6080;48.818;9.526;2023-06-04T16:33:35;27.90;40.80
12039;DHT22;6080;48.818;9.526;2023-06-04T16:36:00;27.60;41.50
12039;DHT22;6080;48.818;9.526;2023-06-04T16:38:26;27.80;41.40
12039;DHT22;6080;48.818;9.526;2023-06-04T16:40:53;27.60;41.40
12039;DHT22;6080;48.818;9.526;2023-06-04T16:43:21;27.50;41.30
12039;DHT22;6080;48.818;9.526;2023-06-04T16:45:47;27.60;41.60
12039;DHT22;6080;48.818;9.526;2023-06-04T16:48:13;27.90;41.40
12039;DHT22;6080;48.818;9.526;2023-06-04T16:50:39;28.10;40.80
12039;DHT22;6080;48.818;9.526;2023-06-04T16:53:04;28.20;41.10
12039;DHT22;6080;48.818;9.526;2023-06-04T16:55:32;28.10;41.30
12039;DHT22;6080;48.818;9.526;2023-06-04T16:57:59;27.90;41.20
12039;DHT22;6080;48.818;9.526;2023-06-04T17:00:25;27.40;41.10
12039;DHT22;6080;48.818;9.526;2023-06-04T17:02:51;27.10;41.10
12039;DHT22;6080;48.818;9.526;2023-06-04T17:05:17;27.00;42.20
12039;DHT22;6080;48.818;9.526;2023-06-04T17:07:44;27.00;42.80
12039;DHT22;6080;48.818;9.526;2023-06-04T17:10:10;26.90;43.30
12039;DHT22;6080;48.818;9.526;2023-06-04T17:12:38;26.90;43.30
12039;DHT22;6080;48.818;9.526;2023-06-04T17:15:05;26.80;43.40
12039;DHT22;6080;48.818;9.526;2023-06-04T17:17:31;26.70;43.20
12039;DHT22;6080;48.818;9.526;2023-06-04T17:19:57;26.60;44.00
12039;DHT22;6080;48.818;9.526;2023-06-04T17:22:23;26.40;43.60
12039;DHT22;6080;48.818;9.526;2023-06-04T17:24:49;26.20;43.80
12039;DHT22;6080;48.818;9.526;2023-06-04T17:27:16;26.00;44.10
12039;DHT22;6080;48.818;9.526;2023-06-04T17:29:42;25.90;44.40
12039;DHT22;6080;48.818;9.526;2023-06-04T17:32:08;26.00;45.50
12039;DHT22;6080;48.818;9.526;2023-06-04T17:34:35;26.20;44.50
12039;DHT22;6080;48.818;9.526;2023-06-04T17:37:01;26.20;43.20
12039;DHT22;6080;48.818;9.526;2023-06-04T17:39:29;26.10;43.40
12039;DHT22;6080;48.818;9.526;2023-06-04T17:42:00;26.30;43.30
12039;DHT22;6080;48.818;9.526;2023-06-04T17:44:26;26.40;43.50
12039;DHT22;6080;48.818;9.526;2023-06-04T17:46:53;26.50;42.90
12039;DHT22;6080;48.818;9.526;2023-06-04T17:49:19;26.60;43.20
12039;DHT22;6080;48.818;9.526;2023-06-04T17:51:45;27.00;42.90
12039;DHT22;6080;48.818;9.526;2023-06-04T17:54:13;27.20;42.30
12039;DHT22;6080;48.818;9.526;2023-06-04T17:56:39;27.40;42.90
12039;DHT22;6080;48.818;9.526;2023-06-04T17:59:05;27.30;41.80
12039;DHT22;6080;48.818;9.526;2023-06-04T18:01:31;27.30;42.00
12039;DHT22;6080;48.818;9.526;2023-06-04T18:03:57;27.20;42.20
12039;DHT22;6080;48.818;9.526;2023-06-04T18:06:24;27.30;42.30
12039;DHT22;6080;48.818;9.526;2023-06-04T18:08:50;27.30;43.00
12039;DHT22;6080;48.818;9.526;2023-06-04T18:11:16;27.20;43.10
12039;DHT22;6080;48.818;9.526;2023-06-04T18:13:42;26.90;43.70
12039;DHT22;6080;48.818;9.526;2023-06-04T18:16:08;26.50;44.90
12039;DHT22;6080;48.818;9.526;2023-06-04T18:18:41;26.30;46.30
12039;DHT22;6080;48.818;9.526;2023-06-04T18:21:07;26.20;45.60
12039;DHT22;6080;48.818;9.526;2023-06-04T18:23:33;26.10;45.80
12039;DHT22;6080;48.818;9.526;2023-06-04T18:25:59;25.90;45.80
12039;DHT22;6080;48.818;9.526;2023-06-04T18:28:25;25.60;46.20
12039;DHT22;6080;48.818;9.526;2023-06-04T18:30:51;25.40;46.30
12039;DHT22;6080;48.818;9.526;2023-06-04T18:33:17;25.30;46.90
12039;DHT22;6080;48.818;9.526;2023-06-04T18:35:42;25.10;47.00
12039;DHT22;6080;48.818;9.526;2023-06-04T18:38:08;24.90;47.10
12039;DHT22;6080;48.818;9.526;2023-06-04T18:40:35;24.70;48.00
12039;DHT22;6080;48.818;9.526;2023-06-04T18:43:00;24.50;48.00
12039;DHT22;6080;48.818;9.526;2023-06-04T18:45:27;24.30;49.00
12039;DHT22;6080;48.818;9.526;2023-06-04T18:47:55;24.20;49.10
12039;DHT22;6080;48.818;9.526;2023-06-04T18:50:21;24.00;49.10